Time;durP1;ratioP1;P1;durP2;ratioP2;P2;SDS_P1;SDS_P2;PMS_P1;PMS_P2;Temp;Humidity;BMP_temperature;BMP_pressure;BME280_temperature;BME280_humidity;BME280_pressure;Samples;Min_cycle;Max_cycle;Signal;HPM_P1;HPM_P2
2024/03/27 00:02:09;;;;;;;4.97;2.95;;;;;;;;;;5010297;28;20487;-73
2024/03/27 00:04:36;;;;;;;5.57;3.10;;;;;;;;;;5011935;28;20545;-73
2024/03/27 00:07:02;;;;;;;4.82;2.83;;;;;;;;;;5010564;28;20468;-75
2024/03/27 00:09:28;;;;;;;6.65;3.40;;;;;;;;;;5012050;28;20472;-73
2024/03/27 00:11:54;;;;;;;11.75;3.20;;;;;;;;;;5010489;28;20022;-76
2024/03/27 00:14:20;;;;;;;5.22;3.40;;;;;;;;;;5012838;28;20026;-78
2024/03/27 00:16:46;;;;;;;6.03;3.78;;;;;;;;;;5010840;28;20037;-75
2024/03/27 00:19:13;;;;;;;7.00;3.17;;;;;;;;;;5010982;28;20072;-73
2024/03/27 00:21:40;;;;;;;5.50;3.42;;;;;;;;;;5013504;28;20036;-77
2024/03/27 00:24:06;;;;;;;4.55;2.42;;;;;;;;;;5011558;28;20506;-75
2024/03/27 00:26:32;;;;;;;5.65;2.58;;;;;;;;;;5013769;28;20030;-73
2024/03/27 00:28:58;;;;;;;5.97;3.30;;;;;;;;;;5016516;28;20088;-74
2024/03/27 00:31:25;;;;;;;8.25;3.40;;;;;;;;;;5013535;28;20063;-74
2024/03/27 00:33:52;;;;;;;6.15;2.95;;;;;;;;;;5014119;28;20575;-73
2024/03/27 00:36:18;;;;;;;4.55;2.50;;;;;;;;;;5013066;28;20326;-74
2024/03/27 00:38:44;;;;;;;6.85;2.75;;;;;;;;;;5012425;28;20368;-75
2024/03/27 00:41:10;;;;;;;8.10;3.20;;;;;;;;;;5010447;28;20053;-76
2024/03/27 00:43:36;;;;;;;5.88;3.28;;;;;;;;;;5010279;28;20373;-76
2024/03/27 00:46:03;;;;;;;7.00;2.65;;;;;;;;;;5010521;28;20034;-76
2024/03/27 00:48:30;;;;;;;6.15;2.75;;;;;;;;;;5010198;28;20080;-77
2024/03/27 00:50:56;;;;;;;5.25;2.80;;;;;;;;;;5009871;28;20022;-77
2024/03/27 00:53:22;;;;;;;3.38;2.70;;;;;;;;;;5011283;28;20034;-75
2024/03/27 00:55:59;;;;;;;6.18;3.28;;;;;;;;;;5010110;28;20026;-77
2024/03/27 00:58:25;;;;;;;4.97;2.88;;;;;;;;;;5009580;28;20388;-75
2024/03/27 01:00:51;;;;;;;21.50;4.43;;;;;;;;;;5010220;28;20201;-77
2024/03/27 01:03:18;;;;;;;7.30;3.22;;;;;;;;;;5009833;28;20112;-76
2024/03/27 01:05:44;;;;;;;6.78;2.95;;;;;;;;;;5011715;28;20056;-77
2024/03/27 01:08:10;;;;;;;5.82;4.30;;;;;;;;;;5011950;28;20026;-78
2024/03/27 01:10:37;;;;;;;5.82;3.55;;;;;;;;;;5011949;28;20437;-77
2024/03/27 01:13:03;;;;;;;5.10;3.13;;;;;;;;;;5011054;28;20029;-77
2024/03/27 01:15:30;;;;;;;4.55;2.88;;;;;;;;;;5012824;28;20106;-78
2024/03/27 01:17:56;;;;;;;7.90;4.43;;;;;;;;;;5011390;28;20111;-77
2024/03/27 01:20:23;;;;;;;9.43;5.18;;;;;;;;;;5014013;28;20026;-77
2024/03/27 01:22:49;;;;;;;8.20;4.35;;;;;;;;;;5013867;28;20116;-78
2024/03/27 01:25:15;;;;;;;9.25;4.55;;;;;;;;;;5015537;28;20026;-77
2024/03/27 01:27:41;;;;;;;5.50;4.40;;;;;;;;;;5010594;28;20076;-77
2024/03/27 01:30:07;;;;;;;8.32;5.00;;;;;;;;;;5016964;28;20056;-79
2024/03/27 01:32:34;;;;;;;7.65;5.40;;;;;;;;;;5017338;28;20022;-79
2024/03/27 01:35:00;;;;;;;6.28;4.90;;;;;;;;;;5016776;28;20042;-76
2024/03/27 01:37:26;;;;;;;6.38;5.13;;;;;;;;;;5016391;28;20025;-78
2024/03/27 01:39:52;;;;;;;7.25;5.15;;;;;;;;;;5013974;28;20099;-77
2024/03/27 01:42:18;;;;;;;7.40;4.63;;;;;;;;;;5014813;28;20049;-77
2024/03/27 01:44:44;;;;;;;7.03;4.90;;;;;;;;;;5015212;28;20468;-78
2024/03/27 01:47:11;;;;;;;8.20;5.18;;;;;;;;;;5015760;28;20040;-79
2024/03/27 01:49:37;;;;;;;7.15;4.78;;;;;;;;;;5013403;28;20041;-77
2024/03/27 01:52:05;;;;;;;5.32;3.85;;;;;;;;;;5013021;28;20026;-76
2024/03/27 01:54:31;;;;;;;5.63;4.57;;;;;;;;;;5015715;28;20029;-77
2024/03/27 01:56:58;;;;;;;8.98;4.80;;;;;;;;;;5018192;28;20558;-77
2024/03/27 01:59:24;;;;;;;6.38;4.13;;;;;;;;;;5014829;28;20460;-77
2024/03/27 02:01:51;;;;;;;7.35;5.15;;;;;;;;;;5015477;28;20526;-75
2024/03/27 02:04:17;;;;;;;6.03;4.50;;;;;;;;;;5014246;28;20029;-77
2024/03/27 02:06:43;;;;;;;8.88;4.65;;;;;;;;;;5013809;28;20026;-77
2024/03/27 02:09:10;;;;;;;5.93;4.45;;;;;;;;;;5013019;28;20022;-78
2024/03/27 02:11:36;;;;;;;8.30;4.00;;;;;;;;;;5015143;28;20492;-75
2024/03/27 02:14:02;;;;;;;6.25;4.18;;;;;;;;;;5014599;28;20435;-76
2024/03/27 02:16:28;;;;;;;8.98;4.00;;;;;;;;;;5013226;28;20113;-77
2024/03/27 02:18:54;;;;;;;10.02;4.28;;;;;;;;;;5012996;28;20030;-76
2024/03/27 02:21:20;;;;;;;8.52;3.70;;;;;;;;;;5014872;28;20042;-77
2024/03/27 02:23:56;;;;;;;5.10;4.07;;;;;;;;;;5014679;28;20420;-75
2024/03/27 02:26:25;;;;;;;4.80;3.88;;;;;;;;;;5015079;28;20099;-77
2024/03/27 02:28:51;;;;;;;6.45;3.92;;;;;;;;;;5015912;28;20473;-77
2024/03/27 02:31:17;;;;;;;8.63;4.40;;;;;;;;;;5013164;28;20510;-78
2024/03/27 02:33:43;;;;;;;9.98;4.13;;;;;;;;;;5014422;28;20451;-77
2024/03/27 02:36:09;;;;;;;9.90;4.25;;;;;;;;;;5013417;28;20449;-78
2024/03/27 02:38:35;;;;;;;8.82;3.75;;;;;;;;;;5016269;28;20100;-76
2024/03/27 02:41:01;;;;;;;8.50;4.03;;;;;;;;;;5012513;28;20029;-76
2024/03/27 02:43:29;;;;;;;4.75;3.45;;;;;;;;;;5023184;28;20357;-76
2024/03/27 02:45:54;;;;;;;5.38;4.05;;;;;;;;;;5017378;28;20033;-78
2024/03/27 02:48:21;;;;;;;5.10;3.92;;;;;;;;;;5013214;28;20026;-79
2024/03/27 02:50:47;;;;;;;7.32;3.53;;;;;;;;;;5011976;28;20017;-77
2024/03/27 02:53:13;;;;;;;5.32;4.00;;;;;;;;;;5011648;28;20034;-76
2024/03/27 02:55:39;;;;;;;7.75;3.97;;;;;;;;;;5012391;28;20026;-76
2024/03/27 02:58:05;;;;;;;5.93;3.10;;;;;;;;;;5013617;28;20030;-76
2024/03/27 03:00:31;;;;;;;4.43;2.95;;;;;;;;;;5013216;28;20034;-78
2024/03/27 03:02:57;;;;;;;4.65;3.58;;;;;;;;;;5016402;28;20487;-75
2024/03/27 03:05:23;;;;;;;5.30;3.13;;;;;;;;;;5017309;28;20026;-77
2024/03/27 03:07:49;;;;;;;5.93;3.40;;;;;;;;;;5011805;28;20026;-76
2024/03/27 03:10:15;;;;;;;4.55;3.15;;;;;;;;;;5013739;28;20029;-79
2024/03/27 03:12:41;;;;;;;4.03;3.00;;;;;;;;;;5012738;28;20113;-76
2024/03/27 03:15:07;;;;;;;5.65;3.50;;;;;;;;;;5011698;28;20084;-78
2024/03/27 03:17:33;;;;;;;4.72;3.63;;;;;;;;;;5013604;28;20033;-78
2024/03/27 03:19:59;;;;;;;5.72;4.03;;;;;;;;;;5016585;28;20125;-77
2024/03/27 03:22:25;;;;;;;6.32;3.55;;;;;;;;;;5014922;28;20381;-77
2024/03/27 03:24:51;;;;;;;6.25;3.00;;;;;;;;;;5013940;28;20033;-78
2024/03/27 03:27:17;;;;;;;9.20;3.45;;;;;;;;;;5013696;28;20025;-76
2024/03/27 03:29:43;;;;;;;8.10;4.13;;;;;;;;;;5014299;28;20025;-75
2024/03/27 03:32:09;;;;;;;6.97;3.53;;;;;;;;;;5014047;28;20413;-75
2024/03/27 03:34:36;;;;;;;7.65;3.25;;;;;;;;;;5012456;28;20094;-76
2024/03/27 03:37:02;;;;;;;4.97;3.55;;;;;;;;;;5013288;28;20100;-77
2024/03/27 03:39:28;;;;;;;8.88;3.55;;;;;;;;;;5013406;28;20056;-76
2024/03/27 03:41:54;;;;;;;7.72;3.60;;;;;;;;;;5015786;28;20112;-77
2024/03/27 03:44:20;;;;;;;9.50;4.18;;;;;;;;;;5013580;28;20488;-76
2024/03/27 03:46:46;;;;;;;4.75;2.80;;;;;;;;;;5014341;28;20033;-77
2024/03/27 03:49:12;;;;;;;17.13;4.07;;;;;;;;;;5013497;28;20097;-78
2024/03/27 03:51:38;;;;;;;7.68;3.38;;;;;;;;;;5012152;28;20072;-76
2024/03/27 03:54:04;;;;;;;6.32;3.33;;;;;;;;;;5011938;28;20022;-76
2024/03/27 03:56:30;;;;;;;4.82;3.13;;;;;;;;;;5014579;28;20106;-76
2024/03/27 03:58:56;;;;;;;3.83;3.00;;;;;;;;;;5012918;28;20049;-76
2024/03/27 04:01:22;;;;;;;3.97;2.70;;;;;;;;;;5012654;28;20436;-74
2024/03/27 04:03:48;;;;;;;6.75;3.33;;;;;;;;;;5014606;28;20026;-77
2024/03/27 04:06:15;;;;;;;8.10;3.10;;;;;;;;;;5013977;28;20030;-74
2024/03/27 04:08:41;;;;;;;5.60;3.50;;;;;;;;;;5020567;28;20056;-75
2024/03/27 04:11:07;;;;;;;4.22;3.13;;;;;;;;;;5019412;28;20021;-77
2024/03/27 04:13:33;;;;;;;9.18;3.20;;;;;;;;;;5012802;28;20022;-75
2024/03/27 04:16:01;;;;;;;8.02;3.45;;;;;;;;;;5014464;28;20125;-76
2024/03/27 04:18:27;;;;;;;6.15;3.38;;;;;;;;;;5014962;28;20030;-76
2024/03/27 04:20:53;;;;;;;5.97;2.72;;;;;;;;;;5014009;28;20026;-75
2024/03/27 04:23:19;;;;;;;4.53;3.03;;;;;;;;;;5013228;28;20052;-74
2024/03/27 04:25:49;;;;;;;6.20;2.97;;;;;;;;;;5012495;28;20025;-77
2024/03/27 04:28:15;;;;;;;7.03;3.28;;;;;;;;;;5012537;28;20096;-75
2024/03/27 04:30:42;;;;;;;10.77;3.92;;;;;;;;;;5013310;28;20026;-75
2024/03/27 04:33:08;;;;;;;10.68;3.60;;;;;;;;;;5012810;28;20500;-76
2024/03/27 04:35:34;;;;;;;7.03;2.83;;;;;;;;;;5012562;28;20125;-75
2024/03/27 04:38:00;;;;;;;4.35;2.95;;;;;;;;;;5014266;28;20029;-76
2024/03/27 04:40:26;;;;;;;6.35;3.63;;;;;;;;;;5012898;28;20400;-76
2024/03/27 04:42:52;;;;;;;9.90;4.35;;;;;;;;;;5014077;28;20022;-77
2024/03/27 04:45:18;;;;;;;6.72;3.25;;;;;;;;;;5021076;28;20056;-76
2024/03/27 04:47:44;;;;;;;4.93;3.78;;;;;;;;;;5022777;28;20033;-76
2024/03/27 04:50:11;;;;;;;6.22;3.13;;;;;;;;;;5024185;28;20026;-77
2024/03/27 04:52:37;;;;;;;7.95;3.50;;;;;;;;;;5021619;28;20026;-76
2024/03/27 04:55:04;;;;;;;6.35;3.63;;;;;;;;;;5025744;28;20041;-78
2024/03/27 04:57:30;;;;;;;10.75;3.88;;;;;;;;;;5019010;28;20373;-76
2024/03/27 04:59:56;;;;;;;16.95;4.10;;;;;;;;;;5016486;28;20030;-77
2024/03/27 05:02:22;;;;;;;13.40;3.95;;;;;;;;;;5014457;28;20034;-77
2024/03/27 05:04:49;;;;;;;6.43;3.00;;;;;;;;;;5015407;28;20037;-76
2024/03/27 05:07:15;;;;;;;6.15;3.08;;;;;;;;;;5018025;28;20022;-76
2024/03/27 05:09:41;;;;;;;4.95;3.42;;;;;;;;;;5015612;28;20032;-77
2024/03/27 05:12:07;;;;;;;4.80;3.42;;;;;;;;;;5015600;28;20022;-76
2024/03/27 05:14:33;;;;;;;9.20;3.25;;;;;;;;;;5015368;28;20022;-78
2024/03/27 05:16:59;;;;;;;9.00;4.63;;;;;;;;;;5016361;28;20029;-79
2024/03/27 05:19:25;;;;;;;11.32;4.93;;;;;;;;;;5016394;28;20033;-77
2024/03/27 05:21:52;;;;;;;8.30;4.28;;;;;;;;;;5016341;28;20022;-75
2024/03/27 05:24:18;;;;;;;8.38;3.92;;;;;;;;;;5015646;28;20026;-75
2024/03/27 05:26:47;;;;;;;5.28;3.42;;;;;;;;;;5015129;28;20072;-76
2024/03/27 05:29:14;;;;;;;7.95;3.22;;;;;;;;;;5015136;28;20030;-77
2024/03/27 05:31:50;;;;;;;9.07;4.00;;;;;;;;;;5016617;28;20062;-75
2024/03/27 05:34:17;;;;;;;7.93;3.70;;;;;;;;;;5017054;28;20030;-76
2024/03/27 05:36:43;;;;;;;6.90;3.50;;;;;;;;;;5020755;28;20026;-77
2024/03/27 05:39:09;;;;;;;5.90;3.40;;;;;;;;;;5019616;28;20428;-75
2024/03/27 05:41:36;;;;;;;6.05;3.30;;;;;;;;;;5020150;28;20022;-76
2024/03/27 05:44:02;;;;;;;5.68;3.92;;;;;;;;;;5017838;28;20325;-76
2024/03/27 05:46:28;;;;;;;6.25;4.00;;;;;;;;;;5016199;28;20096;-78
2024/03/27 05:48:57;;;;;;;7.10;3.50;;;;;;;;;;5017467;28;20443;-78
2024/03/27 05:51:27;;;;;;;6.47;4.40;;;;;;;;;;5017809;28;20037;-76
2024/03/27 05:53:53;;;;;;;11.48;5.05;;;;;;;;;;5016781;28;20093;-78
2024/03/27 05:56:19;;;;;;;13.68;4.97;;;;;;;;;;5016271;28;20060;-79
2024/03/27 05:58:46;;;;;;;10.10;3.55;;;;;;;;;;5018065;28;20026;-76
2024/03/27 06:01:13;;;;;;;8.45;3.72;;;;;;;;;;5001493;28;20053;-76
2024/03/27 06:03:39;;;;;;;9.93;3.92;;;;;;;;;;5019464;28;20105;-75
2024/03/27 06:06:06;;;;;;;7.45;3.88;;;;;;;;;;5019001;28;20545;-76
2024/03/27 06:08:32;;;;;;;8.85;4.85;;;;;;;;;;5015944;28;20165;-74
2024/03/27 06:10:58;;;;;;;8.48;4.43;;;;;;;;;;5018144;28;20050;-77
2024/03/27 06:13:24;;;;;;;7.60;5.40;;;;;;;;;;5017777;28;20037;-75
2024/03/27 06:15:50;;;;;;;8.18;4.50;;;;;;;;;;5016636;28;20042;-75
2024/03/27 06:18:16;;;;;;;7.60;4.70;;;;;;;;;;5015469;28;20168;-75
2024/03/27 06:20:42;;;;;;;13.35;5.68;;;;;;;;;;5017415;28;20037;-73
2024/03/27 06:23:08;;;;;;;7.88;4.93;;;;;;;;;;5015792;28;20045;-76
2024/03/27 06:25:34;;;;;;;9.43;4.95;;;;;;;;;;5016475;28;20373;-72
2024/03/27 06:28:00;;;;;;;9.52;4.63;;;;;;;;;;5015367;28;20033;-73
2024/03/27 06:30:26;;;;;;;11.98;5.50;;;;;;;;;;5016168;28;20037;-74
2024/03/27 06:32:52;;;;;;;11.93;5.60;;;;;;;;;;5015939;28;20310;-73
2024/03/27 06:35:21;;;;;;;9.18;4.85;;;;;;;;;;5013767;28;20088;-72
2024/03/27 06:37:47;;;;;;;6.57;4.72;;;;;;;;;;5015118;28;20033;-74
2024/03/27 06:40:14;;;;;;;8.65;4.03;;;;;;;;;;5016797;28;20029;-73
2024/03/27 06:42:40;;;;;;;7.80;4.18;;;;;;;;;;5013238;28;20252;-73
2024/03/27 06:45:06;;;;;;;10.40;4.32;;;;;;;;;;5014635;28;20045;-73
2024/03/27 06:47:33;;;;;;;7.00;3.92;;;;;;;;;;5014741;28;20499;-73
2024/03/27 06:49:59;;;;;;;8.07;4.25;;;;;;;;;;5015138;28;20087;-72
2024/03/27 06:52:25;;;;;;;7.68;4.20;;;;;;;;;;5013280;28;20033;-71
2024/03/27 06:54:51;;;;;;;13.50;3.88;;;;;;;;;;5014303;28;20112;-74
2024/03/27 06:57:18;;;;;;;8.93;3.88;;;;;;;;;;5015514;28;20030;-74
2024/03/27 06:59:44;;;;;;;14.20;4.40;;;;;;;;;;5014918;28;20087;-74
2024/03/27 07:02:10;;;;;;;11.63;4.93;;;;;;;;;;5012549;28;20080;-74
2024/03/27 07:04:37;;;;;;;8.55;4.50;;;;;;;;;;5014444;28;20036;-74
2024/03/27 07:07:03;;;;;;;8.15;3.40;;;;;;;;;;5013683;28;20030;-74
2024/03/27 07:09:30;;;;;;;6.40;3.03;;;;;;;;;;5014592;28;20167;-73
2024/03/27 07:11:56;;;;;;;5.25;2.88;;;;;;;;;;5013556;28;20026;-73
2024/03/27 07:14:22;;;;;;;4.22;2.70;;;;;;;;;;5013457;28;20089;-73
2024/03/27 07:16:48;;;;;;;5.45;3.03;;;;;;;;;;5014205;28;20432;-73
2024/03/27 07:19:14;;;;;;;3.40;2.50;;;;;;;;;;5012516;28;20028;-73
2024/03/27 07:21:43;;;;;;;5.82;3.00;;;;;;;;;;5010884;28;20077;-73
2024/03/27 07:24:09;;;;;;;5.82;3.00;;;;;;;;;;5011442;28;20044;-73
2024/03/27 07:26:39;;;;;;;4.97;2.85;;;;;;;;;;5011374;28;20018;-73
2024/03/27 07:29:05;;;;;;;5.00;2.80;;;;;;;;;;5013644;28;20123;-73
2024/03/27 07:31:31;;;;;;;6.93;3.47;;;;;;;;;;5012674;28;20097;-75
2024/03/27 07:33:57;;;;;;;6.85;3.55;;;;;;;;;;5012163;28;20065;-73
2024/03/27 07:36:23;;;;;;;7.90;3.60;;;;;;;;;;5011910;28;20037;-73
2024/03/27 07:38:50;;;;;;;7.95;3.53;;;;;;;;;;5014223;28;20033;-73
2024/03/27 07:41:16;;;;;;;8.30;3.58;;;;;;;;;;5013358;28;20042;-72
2024/03/27 07:43:42;;;;;;;9.20;4.38;;;;;;;;;;5012127;28;20026;-73
2024/03/27 07:46:08;;;;;;;7.43;3.97;;;;;;;;;;5014298;28;20113;-73
2024/03/27 07:48:35;;;;;;;10.95;4.15;;;;;;;;;;5015725;28;20026;-72
2024/03/27 07:51:01;;;;;;;7.20;3.78;;;;;;;;;;5016473;28;20025;-73
2024/03/27 07:53:29;;;;;;;9.57;4.18;;;;;;;;;;5015816;28;20025;-74
2024/03/27 07:55:55;;;;;;;5.50;3.85;;;;;;;;;;5016274;28;20049;-74
2024/03/27 07:58:21;;;;;;;9.25;3.33;;;;;;;;;;5013650;28;20053;-74
2024/03/27 08:00:47;;;;;;;4.05;3.30;;;;;;;;;;5013314;28;20088;-75
2024/03/27 08:03:14;;;;;;;7.75;3.92;;;;;;;;;;5012444;28;20079;-73
2024/03/27 08:05:40;;;;;;;5.43;3.67;;;;;;;;;;5013322;28;20223;-72
2024/03/27 08:08:06;;;;;;;6.10;3.50;;;;;;;;;;5012835;28;20089;-75
2024/03/27 08:10:32;;;;;;;4.50;3.78;;;;;;;;;;5014055;28;20088;-73
2024/03/27 08:12:58;;;;;;;5.95;3.42;;;;;;;;;;5012741;28;20029;-74
2024/03/27 08:15:24;;;;;;;7.97;4.05;;;;;;;;;;5011394;28;20026;-74
2024/03/27 08:17:50;;;;;;;8.10;3.50;;;;;;;;;;5012570;28;20102;-73
2024/03/27 08:20:17;;;;;;;4.88;3.70;;;;;;;;;;5012675;28;20076;-75
2024/03/27 08:22:43;;;;;;;15.18;4.18;;;;;;;;;;5011868;28;20018;-73
2024/03/27 08:25:09;;;;;;;14.38;4.60;;;;;;;;;;5010849;28;20107;-73
2024/03/27 08:27:35;;;;;;;9.35;3.53;;;;;;;;;;5012433;28;20472;-73
2024/03/27 08:30:02;;;;;;;10.30;4.03;;;;;;;;;;5012899;28;20017;-73
2024/03/27 08:32:28;;;;;;;8.75;3.88;;;;;;;;;;5013009;28;20379;-73
2024/03/27 08:34:54;;;;;;;10.23;3.72;;;;;;;;;;5012489;28;20040;-72
2024/03/27 08:37:20;;;;;;;6.70;3.35;;;;;;;;;;5011704;28;20033;-74
2024/03/27 08:39:46;;;;;;;8.13;3.67;;;;;;;;;;5011634;28;20085;-72
2024/03/27 08:42:12;;;;;;;5.50;3.13;;;;;;;;;;5013337;28;20026;-72
2024/03/27 08:44:38;;;;;;;5.35;3.55;;;;;;;;;;5012087;28;20097;-72
2024/03/27 08:47:04;;;;;;;4.40;2.90;;;;;;;;;;5009853;28;20025;-73
2024/03/27 08:49:30;;;;;;;8.90;3.92;;;;;;;;;;5012684;28;20030;-74
2024/03/27 08:51:56;;;;;;;11.23;3.67;;;;;;;;;;5013739;28;20101;-73
2024/03/27 08:54:22;;;;;;;5.57;3.80;;;;;;;;;;5011144;28;20108;-74
2024/03/27 08:56:49;;;;;;;7.85;4.55;;;;;;;;;;5007499;28;20022;-73
2024/03/27 08:59:15;;;;;;;6.85;5.13;;;;;;;;;;4991872;28;20088;-74
2024/03/27 09:01:41;;;;;;;6.90;4.63;;;;;;;;;;4992191;28;20345;-73
2024/03/27 09:04:07;;;;;;;7.85;4.68;;;;;;;;;;4993712;28;20073;-73
2024/03/27 09:06:33;;;;;;;5.32;4.78;;;;;;;;;;4993005;28;20400;-74
2024/03/27 09:08:59;;;;;;;6.57;3.85;;;;;;;;;;4994687;28;20357;-73
2024/03/27 09:11:25;;;;;;;8.35;5.00;;;;;;;;;;4992000;28;20022;-72
2024/03/27 09:13:51;;;;;;;17.75;5.30;;;;;;;;;;4994492;28;20109;-74
2024/03/27 09:16:17;;;;;;;7.75;4.60;;;;;;;;;;4992938;28;20026;-72
2024/03/27 09:18:43;;;;;;;5.20;4.30;;;;;;;;;;4992480;28;20441;-74
2024/03/27 09:21:10;;;;;;;8.25;4.05;;;;;;;;;;4991015;28;20512;-73
2024/03/27 09:23:37;;;;;;;10.85;4.20;;;;;;;;;;4991104;28;20605;-72
2024/03/27 09:26:04;;;;;;;7.97;4.68;;;;;;;;;;4993934;28;20031;-72
2024/03/27 09:28:31;;;;;;;9.82;4.03;;;;;;;;;;4992298;28;20288;-74
2024/03/27 09:30:57;;;;;;;12.75;4.85;;;;;;;;;;4992147;28;20533;-74
2024/03/27 09:33:23;;;;;;;8.50;4.10;;;;;;;;;;4995639;28;20030;-74
2024/03/27 09:35:50;;;;;;;4.72;4.22;;;;;;;;;;5009852;28;20045;-75
2024/03/27 09:38:17;;;;;;;7.40;3.42;;;;;;;;;;5011969;28;20022;-73
2024/03/27 09:40:47;;;;;;;6.93;4.68;;;;;;;;;;5014045;28;20030;-74
2024/03/27 09:43:13;;;;;;;8.13;4.45;;;;;;;;;;4995286;28;20042;-73
2024/03/27 09:45:40;;;;;;;8.15;4.38;;;;;;;;;;5007553;28;20030;-75
2024/03/27 09:48:06;;;;;;;4.82;3.15;;;;;;;;;;5000489;28;20083;-74
2024/03/27 09:50:33;;;;;;;11.02;3.60;;;;;;;;;;4998976;28;20026;-74
2024/03/27 09:53:00;;;;;;;8.38;3.70;;;;;;;;;;5008954;28;20488;-75
2024/03/27 09:55:30;;;;;;;12.48;4.45;;;;;;;;;;4999132;28;20030;-74
2024/03/27 09:57:59;;;;;;;4.33;3.63;;;;;;;;;;5009510;28;20425;-76
2024/03/27 10:00:28;;;;;;;5.10;3.63;;;;;;;;;;5005761;28;20453;-74
2024/03/27 10:02:54;;;;;;;10.52;4.45;;;;;;;;;;5000617;28;20571;-74
2024/03/27 10:05:25;;;;;;;5.35;4.18;;;;;;;;;;5011709;28;20053;-76
2024/03/27 10:07:51;;;;;;;6.45;3.28;;;;;;;;;;5002906;28;20506;-75
2024/03/27 10:10:18;;;;;;;6.40;4.00;;;;;;;;;;5007671;28;20097;-74
2024/03/27 10:12:45;;;;;;;10.05;4.47;;;;;;;;;;5007482;28;20033;-74
2024/03/27 10:15:11;;;;;;;8.02;4.28;;;;;;;;;;5015841;28;20030;-73
2024/03/27 10:17:38;;;;;;;5.93;3.85;;;;;;;;;;4999233;28;20033;-72
2024/03/27 10:20:05;;;;;;;7.55;3.90;;;;;;;;;;5005817;28;20037;-73
2024/03/27 10:22:31;;;;;;;10.88;4.55;;;;;;;;;;5004111;28;20053;-72
2024/03/27 10:24:58;;;;;;;7.28;4.32;;;;;;;;;;4998681;28;20080;-73
2024/03/27 10:27:25;;;;;;;5.13;3.53;;;;;;;;;;5010577;28;20108;-73
2024/03/27 10:29:51;;;;;;;5.38;3.92;;;;;;;;;;4998869;28;20026;-74
2024/03/27 10:32:17;;;;;;;5.78;3.47;;;;;;;;;;5003329;28;20373;-72
2024/03/27 10:34:43;;;;;;;7.93;4.35;;;;;;;;;;5005092;28;20101;-73
2024/03/27 10:37:11;;;;;;;10.10;3.72;;;;;;;;;;4995405;28;20129;-72
2024/03/27 10:39:41;;;;;;;6.47;4.43;;;;;;;;;;5008972;28;20058;-73
2024/03/27 10:42:11;;;;;;;4.20;3.75;;;;;;;;;;5007111;28;20021;-73
2024/03/27 10:44:37;;;;;;;11.52;4.53;;;;;;;;;;4999984;28;20548;-73
2024/03/27 10:47:05;;;;;;;6.93;4.00;;;;;;;;;;4992906;28;20050;-73
2024/03/27 10:49:31;;;;;;;7.50;4.70;;;;;;;;;;5007696;28;20027;-73
2024/03/27 10:51:57;;;;;;;6.40;4.22;;;;;;;;;;4999234;28;20029;-73
2024/03/27 10:54:24;;;;;;;8.70;4.95;;;;;;;;;;5001710;28;20030;-72
2024/03/27 10:56:50;;;;;;;7.82;4.65;;;;;;;;;;5006400;28;20018;-73
2024/03/27 10:59:16;;;;;;;8.57;5.22;;;;;;;;;;4995619;28;20026;-73
2024/03/27 11:01:42;;;;;;;7.90;4.93;;;;;;;;;;5005364;28;20019;-72
2024/03/27 11:04:09;;;;;;;13.70;4.78;;;;;;;;;;5000552;28;20411;-73
2024/03/27 11:06:36;;;;;;;11.95;5.00;;;;;;;;;;5008555;28;20453;-72
2024/03/27 11:09:03;;;;;;;4.75;3.90;;;;;;;;;;5010062;28;20387;-72
2024/03/27 11:11:31;;;;;;;6.03;3.92;;;;;;;;;;5009235;28;20101;-73
2024/03/27 11:13:57;;;;;;;8.20;3.95;;;;;;;;;;5011278;28;20502;-72
2024/03/27 11:16:24;;;;;;;6.00;3.42;;;;;;;;;;5013036;28;20037;-74
2024/03/27 11:18:53;;;;;;;5.50;4.20;;;;;;;;;;5013350;28;20041;-71
2024/03/27 11:21:19;;;;;;;7.38;4.05;;;;;;;;;;5011989;28;20022;-73
2024/03/27 11:23:50;;;;;;;5.38;3.60;;;;;;;;;;5012798;28;20396;-72
2024/03/27 11:26:27;;;;;;;4.88;3.00;;;;;;;;;;5012202;28;20029;-73
2024/03/27 11:28:53;;;;;;;3.45;2.58;;;;;;;;;;5012961;28;20025;-71
2024/03/27 11:31:20;;;;;;;5.43;2.50;;;;;;;;;;5012904;28;20068;-73
2024/03/27 11:33:48;;;;;;;10.20;2.60;;;;;;;;;;5003495;28;20032;-72
2024/03/27 11:36:21;;;;;;;7.68;2.85;;;;;;;;;;4999986;28;20118;-73
2024/03/27 11:38:47;;;;;;;4.20;2.55;;;;;;;;;;4996062;28;20022;-74
2024/03/27 11:41:13;;;;;;;5.65;2.67;;;;;;;;;;5004496;28;20049;-73
2024/03/27 11:43:39;;;;;;;3.30;2.25;;;;;;;;;;4992049;28;20029;-75
2024/03/27 11:46:06;;;;;;;5.47;2.53;;;;;;;;;;5004094;28;20038;-74
2024/03/27 11:48:32;;;;;;;3.72;2.83;;;;;;;;;;4995478;28;20044;-73
2024/03/27 11:51:02;;;;;;;6.10;2.35;;;;;;;;;;5007673;28;20030;-72
2024/03/27 11:53:29;;;;;;;4.20;2.13;;;;;;;;;;4997547;28;20129;-75
2024/03/27 11:55:55;;;;;;;3.70;2.47;;;;;;;;;;5000599;28;20484;-73
2024/03/27 11:58:21;;;;;;;5.60;2.70;;;;;;;;;;5006361;28;20499;-74
2024/03/27 12:00:49;;;;;;;7.68;2.70;;;;;;;;;;4994759;28;20026;-74
2024/03/27 12:03:15;;;;;;;6.32;2.70;;;;;;;;;;5003867;28;20026;-74
2024/03/27 12:05:41;;;;;;;9.57;2.65;;;;;;;;;;4998723;28;20377;-73
2024/03/27 12:08:07;;;;;;;3.20;2.17;;;;;;;;;;4998482;28;20049;-73
2024/03/27 12:10:33;;;;;;;5.10;3.00;;;;;;;;;;5007209;28;20452;-73
2024/03/27 12:13:03;;;;;;;6.38;3.00;;;;;;;;;;4992283;28;20088;-74
2024/03/27 12:15:31;;;;;;;7.47;2.53;;;;;;;;;;5001868;28;20034;-73
2024/03/27 12:18:00;;;;;;;5.28;2.97;;;;;;;;;;5001033;28;20030;-73
2024/03/27 12:20:31;;;;;;;4.43;2.83;;;;;;;;;;4995871;28;20353;-74
2024/03/27 12:22:57;;;;;;;4.05;2.83;;;;;;;;;;5007605;28;20022;-74
2024/03/27 12:25:23;;;;;;;4.47;2.38;;;;;;;;;;4995746;28;20056;-77
2024/03/27 12:27:50;;;;;;;5.15;3.20;;;;;;;;;;5002319;28;20084;-75
2024/03/27 12:30:19;;;;;;;3.75;2.28;;;;;;;;;;4996602;28;20033;-74
2024/03/27 12:32:45;;;;;;;5.30;2.50;;;;;;;;;;4992334;28;20460;-74
2024/03/27 12:35:11;;;;;;;6.60;3.13;;;;;;;;;;5004219;28;20050;-75
2024/03/27 12:37:37;;;;;;;6.00;2.50;;;;;;;;;;4999352;28;20108;-73
2024/03/27 12:40:04;;;;;;;3.75;2.25;;;;;;;;;;4998208;28;20069;-74
2024/03/27 12:42:30;;;;;;;3.58;2.58;;;;;;;;;;5004352;28;20122;-74
2024/03/27 12:44:56;;;;;;;9.68;2.53;;;;;;;;;;4993588;28;20049;-74
2024/03/27 12:47:22;;;;;;;6.70;2.53;;;;;;;;;;5004007;28;20061;-73
2024/03/27 12:49:48;;;;;;;11.20;2.75;;;;;;;;;;5000762;28;20030;-75
2024/03/27 12:52:14;;;;;;;8.68;2.38;;;;;;;;;;4997143;28;20030;-74
2024/03/27 12:54:40;;;;;;;4.93;2.28;;;;;;;;;;5006877;28;20018;-75
2024/03/27 12:57:07;;;;;;;4.38;1.60;;;;;;;;;;4995134;28;20319;-74
2024/03/27 12:59:33;;;;;;;2.33;1.42;;;;;;;;;;5003128;28;20060;-75
2024/03/27 13:01:59;;;;;;;3.50;1.60;;;;;;;;;;5000203;28;20397;-75
2024/03/27 13:04:28;;;;;;;7.75;2.47;;;;;;;;;;5002678;28;20057;-77
2024/03/27 13:06:54;;;;;;;13.40;3.13;;;;;;;;;;5007826;28;20038;-75
2024/03/27 13:09:20;;;;;;;20.50;2.97;;;;;;;;;;5003270;28;20126;-75
2024/03/27 13:11:47;;;;;;;10.35;2.53;;;;;;;;;;4998717;28;20029;-73
2024/03/27 13:14:13;;;;;;;3.40;2.13;;;;;;;;;;5004584;28;20026;-75
2024/03/27 13:16:39;;;;;;;3.28;2.15;;;;;;;;;;4991839;28;20023;-73
2024/03/27 13:19:05;;;;;;;4.22;1.88;;;;;;;;;;5004688;28;20019;-75
2024/03/27 13:21:31;;;;;;;4.55;1.75;;;;;;;;;;4998291;28;20395;-74
2024/03/27 13:23:57;;;;;;;6.18;1.77;;;;;;;;;;4997062;28;20018;-75
2024/03/27 13:26:23;;;;;;;2.97;1.95;;;;;;;;;;5006512;28;20753;-74
2024/03/27 13:28:49;;;;;;;5.25;1.55;;;;;;;;;;4995771;28;20069;-74
2024/03/27 13:31:15;;;;;;;7.00;1.83;;;;;;;;;;5007523;28;20420;-75
2024/03/27 13:33:42;;;;;;;1.48;1.25;;;;;;;;;;5002010;28;20105;-74
2024/03/27 13:36:08;;;;;;;3.83;1.35;;;;;;;;;;4998535;28;20060;-75
2024/03/27 13:38:34;;;;;;;2.05;1.10;;;;;;;;;;5008340;28;20152;-75
2024/03/27 13:41:00;;;;;;;1.65;1.23;;;;;;;;;;4996622;28;20030;-74
2024/03/27 13:43:26;;;;;;;4.13;1.08;;;;;;;;;;5005148;28;20049;-76
2024/03/27 13:45:52;;;;;;;2.60;1.40;;;;;;;;;;5007693;28;20104;-75
2024/03/27 13:48:18;;;;;;;8.63;1.20;;;;;;;;;;5001186;28;20039;-75
2024/03/27 13:50:44;;;;;;;1.70;0.82;;;;;;;;;;5008329;28;20026;-74
2024/03/27 13:53:10;;;;;;;2.47;0.60;;;;;;;;;;4997796;28;20018;-75
2024/03/27 13:55:37;;;;;;;3.20;0.95;;;;;;;;;;5002696;28;20483;-74
2024/03/27 13:58:03;;;;;;;3.00;1.02;;;;;;;;;;5005032;28;20105;-74
2024/03/27 14:00:29;;;;;;;1.05;0.60;;;;;;;;;;5012036;28;20030;-74
2024/03/27 14:02:55;;;;;;;2.00;0.60;;;;;;;;;;4994058;28;20397;-73
2024/03/27 14:05:21;;;;;;;2.25;0.60;;;;;;;;;;4993769;28;20037;-74
2024/03/27 14:07:47;;;;;;;2.17;0.68;;;;;;;;;;4992645;28;20026;-73
2024/03/27 14:10:14;;;;;;;2.67;0.70;;;;;;;;;;4994000;28;20041;-72
2024/03/27 14:12:40;;;;;;;1.95;0.70;;;;;;;;;;4993729;28;20027;-73
2024/03/27 14:15:10;;;;;;;1.67;0.55;;;;;;;;;;4993770;28;20034;-74
2024/03/27 14:17:37;;;;;;;3.20;0.57;;;;;;;;;;4994045;28;20037;-75
2024/03/27 14:20:04;;;;;;;1.30;0.30;;;;;;;;;;4993607;28;20258;-74
2024/03/27 14:22:30;;;;;;;1.67;0.45;;;;;;;;;;4992071;28;20023;-74
2024/03/27 14:24:58;;;;;;;2.50;0.50;;;;;;;;;;4993531;28;20023;-73
2024/03/27 14:27:24;;;;;;;3.72;0.40;;;;;;;;;;4994228;28;20027;-76
2024/03/27 14:29:51;;;;;;;4.70;0.30;;;;;;;;;;4994189;28;20038;-73
2024/03/27 14:32:18;;;;;;;2.88;0.30;;;;;;;;;;4993434;28;20073;-74
2024/03/27 14:34:45;;;;;;;3.63;1.15;;;;;;;;;;4993203;28;20019;-73
2024/03/27 14:37:11;;;;;;;6.18;0.65;;;;;;;;;;4992802;28;20026;-74